Time;durP1;ratioP1;P1;durP2;ratioP2;P2;SDS_P1;SDS_P2;PMS_P1;PMS_P2;Temp;Humidity;BMP_temperature;BMP_pressure;BME280_temperature;BME280_humidity;BME280_pressure;Samples;Min_cycle;Max_cycle;Signal;HPM_P1;HPM_P2
2024/01/02 00:01:47;;;;;;;3.53;2.30;;;6.70;99.90;;;;;;4959337;28;20063;-66
2024/01/02 00:04:12;;;;;;;0.10;0.10;;;6.70;99.90;;;;;;4969225;28;20438;-65
2024/01/02 00:06:38;;;;;;;1.33;1.23;;;6.70;99.90;;;;;;4962468;28;20051;-66
2024/01/02 00:09:04;;;;;;;0.10;0.10;;;6.70;99.90;;;;;;4963904;28;20039;-66
2024/01/02 00:11:29;;;;;;;0.10;0.10;;;6.70;99.90;;;;;;4958186;28;20065;-66
2024/01/02 00:13:55;;;;;;;1.80;1.65;;;6.70;99.90;;;;;;4975787;28;20045;-66
2024/01/02 00:16:20;;;;;;;0.10;0.10;;;6.70;99.90;;;;;;4968343;28;20066;-65
2024/01/02 00:18:46;;;;;;;0.35;0.35;;;6.70;99.90;;;;;;4963479;28;20486;-66
2024/01/02 00:21:11;;;;;;;0.10;0.10;;;6.70;99.90;;;;;;4968972;28;20043;-66
2024/01/02 00:23:37;;;;;;;0.10;0.10;;;6.70;99.90;;;;;;4971934;28;20043;-66
2024/01/02 00:26:03;;;;;;;0.55;0.55;;;6.70;99.90;;;;;;4963967;28;20589;-66
2024/01/02 00:28:28;;;;;;;2.28;2.08;;;6.70;99.90;;;;;;4968198;28;20563;-67
2024/01/02 00:30:54;;;;;;;0.20;0.20;;;6.70;99.90;;;;;;4971637;28;20481;-66
2024/01/02 00:33:19;;;;;;;0.25;0.25;;;6.70;99.90;;;;;;4984896;28;20054;-66
2024/01/02 00:35:45;;;;;;;0.10;0.10;;;6.70;99.90;;;;;;4963332;28;20097;-66
2024/01/02 00:38:11;;;;;;;0.20;0.20;;;6.70;99.90;;;;;;4971648;28;20139;-66
2024/01/02 00:40:36;;;;;;;0.10;0.10;;;6.70;99.90;;;;;;4979147;28;20051;-66
2024/01/02 00:43:02;;;;;;;0.20;0.20;;;6.70;99.90;;;;;;4961610;28;20062;-66
2024/01/02 00:45:28;;;;;;;0.63;0.63;;;6.70;99.90;;;;;;4966077;28;20486;-66
2024/01/02 00:47:54;;;;;;;0.10;0.10;;;6.70;99.90;;;;;;4959242;28;20047;-66
2024/01/02 00:50:21;;;;;;;1.45;1.35;;;6.70;99.90;;;;;;4967497;28;20502;-66
2024/01/02 00:52:47;;;;;;;0.80;0.75;;;6.70;99.90;;;;;;4967660;28;20042;-66
2024/01/02 00:55:13;;;;;;;0.10;0.10;;;6.70;99.90;;;;;;4968177;28;20133;-66
2024/01/02 00:57:38;;;;;;;0.10;0.10;;;6.70;99.90;;;;;;4960919;28;20589;-66
2024/01/02 01:00:05;;;;;;;0.10;0.10;;;6.70;99.90;;;;;;4965234;28;20039;-66
2024/01/02 01:02:31;;;;;;;0.10;0.10;;;6.70;99.90;;;;;;4963694;28;20145;-66
2024/01/02 01:04:56;;;;;;;0.10;0.10;;;6.70;99.90;;;;;;4968679;28;20165;-66
2024/01/02 01:07:22;;;;;;;0.10;0.10;;;6.70;99.90;;;;;;4965484;28;20070;-66
2024/01/02 01:09:48;;;;;;;0.10;0.10;;;6.70;99.90;;;;;;4959130;28;20386;-66
2024/01/02 01:12:13;;;;;;;3.92;1.27;;;6.70;99.90;;;;;;4969307;28;20050;-66
2024/01/02 01:14:39;;;;;;;0.10;0.10;;;6.70;99.90;;;;;;4997485;28;20043;-66
2024/01/02 01:17:06;;;;;;;0.10;0.10;;;6.70;99.90;;;;;;4959459;28;20047;-66
2024/01/02 01:19:32;;;;;;;0.45;0.45;;;6.70;99.90;;;;;;4962513;28;20058;-66
2024/01/02 01:21:58;;;;;;;0.15;0.15;;;6.80;99.90;;;;;;4969376;28;20051;-66
2024/01/02 01:24:23;;;;;;;3.72;1.48;;;6.80;99.90;;;;;;4964853;28;20101;-66
2024/01/02 01:26:52;;;;;;;0.00;0.00;;;6.80;99.90;;;;;;4978801;28;20410;-66
2024/01/02 01:29:23;;;;;;;0.20;0.20;;;6.80;99.90;;;;;;4963160;28;20051;-66
2024/01/02 01:31:49;;;;;;;0.10;0.10;;;6.80;99.90;;;;;;4962323;28;20179;-67
2024/01/02 01:34:15;;;;;;;1.27;1.17;;;6.80;99.90;;;;;;4958474;28;20462;-66
2024/01/02 01:36:41;;;;;;;0.90;0.90;;;6.70;99.90;;;;;;4962107;28;20062;-66
2024/01/02 01:39:06;;;;;;;0.10;0.10;;;6.80;99.90;;;;;;4967045;28;20959;-66
2024/01/02 01:41:32;;;;;;;0.10;0.10;;;6.80;99.90;;;;;;4960008;28;20138;-66
2024/01/02 01:43:58;;;;;;;0.47;0.47;;;6.80;99.90;;;;;;4968896;28;20075;-66
2024/01/02 01:46:29;;;;;;;0.10;0.10;;;6.80;99.90;;;;;;4967009;28;20433;-66
2024/01/02 01:48:54;;;;;;;0.10;0.10;;;6.80;99.90;;;;;;4981501;28;20486;-66
2024/01/02 01:51:21;;;;;;;0.30;0.30;;;6.80;99.90;;;;;;4967222;28;20046;-66
2024/01/02 01:53:48;;;;;;;0.20;0.20;;;6.80;99.90;;;;;;4967371;28;20437;-66
2024/01/02 01:56:14;;;;;;;12.60;1.40;;;6.80;99.90;;;;;;4964374;28;20118;-66
2024/01/02 01:58:40;;;;;;;0.20;0.20;;;6.90;99.90;;;;;;4960941;28;20043;-66
2024/01/02 02:01:05;;;;;;;0.10;0.10;;;6.90;99.90;;;;;;4964219;28;20050;-66
2024/01/02 02:03:33;;;;;;;0.10;0.10;;;6.90;99.90;;;;;;4959293;28;20133;-66
2024/01/02 02:05:58;;;;;;;0.00;0.00;;;6.90;99.90;;;;;;4967192;28;20051;-66
2024/01/02 02:08:24;;;;;;;0.70;0.70;;;6.90;99.90;;;;;;4966883;28;20489;-66
2024/01/02 02:10:50;;;;;;;0.50;0.50;;;6.90;99.90;;;;;;4963834;28;20047;-66
2024/01/02 02:13:16;;;;;;;0.47;0.47;;;6.90;99.90;;;;;;4965145;28;20041;-66
2024/01/02 02:15:42;;;;;;;0.57;0.57;;;7.00;99.90;;;;;;4977045;28;20043;-66
2024/01/02 02:18:09;;;;;;;0.10;0.10;;;7.00;99.90;;;;;;4962493;28;20045;-65
2024/01/02 02:20:34;;;;;;;0.10;0.10;;;6.90;99.90;;;;;;4966444;28;20061;-67
2024/01/02 02:23:00;;;;;;;0.08;0.08;;;7.00;99.90;;;;;;4957791;28;20043;-66
2024/01/02 02:25:27;;;;;;;2.63;2.42;;;6.90;99.90;;;;;;4965872;28;20478;-66
2024/01/02 02:27:53;;;;;;;0.10;0.10;;;7.00;99.90;;;;;;4969303;28;20077;-66
2024/01/02 02:30:18;;;;;;;0.20;0.20;;;7.00;99.90;;;;;;4969278;28;20046;-66
2024/01/02 02:32:44;;;;;;;0.10;0.10;;;6.90;99.90;;;;;;4962950;28;20141;-66
2024/01/02 02:35:10;;;;;;;0.10;0.10;;;7.00;99.90;;;;;;4961932;28;20251;-66
2024/01/02 02:37:35;;;;;;;6.03;1.40;;;7.00;99.90;;;;;;4969985;28;20039;-66
2024/01/02 02:40:02;;;;;;;0.10;0.10;;;7.00;99.90;;;;;;4958805;28;20078;-66
2024/01/02 02:42:27;;;;;;;0.10;0.10;;;7.00;99.90;;;;;;4968584;28;20046;-66
2024/01/02 02:44:53;;;;;;;6.85;2.85;;;7.00;99.90;;;;;;4977171;28;20057;-66
2024/01/02 02:47:18;;;;;;;0.10;0.10;;;7.00;99.90;;;;;;4964118;28;20086;-66
2024/01/02 02:49:44;;;;;;;0.10;0.10;;;7.00;99.90;;;;;;4968863;28;20073;-66
2024/01/02 02:52:09;;;;;;;0.10;0.10;;;7.00;99.90;;;;;;4962090;28;20510;-66
2024/01/02 02:54:35;;;;;;;0.10;0.10;;;7.00;99.90;;;;;;4960846;28;20047;-66
2024/01/02 02:57:01;;;;;;;0.13;0.13;;;7.10;99.90;;;;;;4957921;28;20054;-66
2024/01/02 02:59:27;;;;;;;0.10;0.10;;;7.10;99.90;;;;;;4962867;28;20726;-66
2024/01/02 03:01:52;;;;;;;0.10;0.10;;;7.10;99.90;;;;;;4961040;28;20568;-67
2024/01/02 03:04:18;;;;;;;0.10;0.10;;;7.10;99.90;;;;;;4964071;28;20487;-66
2024/01/02 03:06:43;;;;;;;0.10;0.10;;;7.10;99.90;;;;;;4956411;28;20147;-66
2024/01/02 03:09:10;;;;;;;0.10;0.10;;;7.10;99.90;;;;;;4979683;28;20405;-66
2024/01/02 03:11:35;;;;;;;0.10;0.10;;;7.10;99.90;;;;;;4964957;28;20506;-67
2024/01/02 03:14:01;;;;;;;0.10;0.10;;;7.10;99.90;;;;;;4965364;28;20055;-66
2024/01/02 03:16:27;;;;;;;0.10;0.10;;;7.10;99.90;;;;;;4968918;28;20435;-66
2024/01/02 03:18:52;;;;;;;0.32;0.32;;;7.10;99.90;;;;;;4970335;28;20121;-66
2024/01/02 03:21:18;;;;;;;0.10;0.10;;;7.10;99.90;;;;;;4961618;28;20046;-67
2024/01/02 03:23:43;;;;;;;0.15;0.15;;;7.10;99.90;;;;;;4960770;28;20046;-67
2024/01/02 03:26:11;;;;;;;4.32;4.03;;;7.10;99.90;;;;;;4968616;28;20042;-66
2024/01/02 03:28:37;;;;;;;0.17;0.17;;;7.10;99.90;;;;;;4965660;28;20039;-67
2024/01/02 03:31:05;;;;;;;0.10;0.10;;;7.10;99.90;;;;;;4965348;28;20383;-67
2024/01/02 03:33:31;;;;;;;1.58;1.33;;;7.10;99.90;;;;;;4968554;28;20169;-66
2024/01/02 03:35:56;;;;;;;1.80;1.70;;;7.10;99.90;;;;;;4952625;28;20137;-67
2024/01/02 03:38:22;;;;;;;0.10;0.10;;;7.10;99.90;;;;;;4966624;28;20043;-67
2024/01/02 03:40:48;;;;;;;0.35;0.35;;;7.10;99.90;;;;;;4962900;28;20506;-67
2024/01/02 03:43:13;;;;;;;0.10;0.10;;;7.10;99.90;;;;;;4969590;28;20043;-66
2024/01/02 03:45:39;;;;;;;0.22;0.22;;;7.10;99.90;;;;;;4963987;28;20136;-67
2024/01/02 03:48:05;;;;;;;0.10;0.10;;;7.10;99.90;;;;;;4969948;28;20042;-67
2024/01/02 03:50:30;;;;;;;1.20;0.55;;;7.10;99.90;;;;;;4972630;28;20077;-67
2024/01/02 03:52:56;;;;;;;0.10;0.10;;;7.10;99.90;;;;;;4971785;28;20097;-67
2024/01/02 03:55:21;;;;;;;0.10;0.10;;;7.10;99.90;;;;;;4967929;28;20042;-67
2024/01/02 03:57:47;;;;;;;0.22;0.22;;;7.10;99.90;;;;;;4970963;28;20398;-67
2024/01/02 04:00:13;;;;;;;0.10;0.10;;;7.10;99.90;;;;;;4975259;28;20034;-67
2024/01/02 04:02:39;;;;;;;5.38;1.65;;;7.10;99.90;;;;;;4974845;28;20050;-67
2024/01/02 04:05:05;;;;;;;1.30;1.23;;;7.10;99.90;;;;;;4970766;28;20609;-67
2024/01/02 04:07:30;;;;;;;0.20;0.20;;;7.10;99.90;;;;;;4967819;28;20146;-67
2024/01/02 04:09:56;;;;;;;0.10;0.10;;;7.10;99.90;;;;;;4969754;28;20402;-67
2024/01/02 04:12:21;;;;;;;0.10;0.10;;;7.10;99.90;;;;;;4965940;28;20431;-67
2024/01/02 04:14:47;;;;;;;0.10;0.10;;;7.10;99.90;;;;;;4972543;28;20050;-67
2024/01/02 04:17:13;;;;;;;0.10;0.10;;;7.10;99.90;;;;;;4969710;28;20058;-67
2024/01/02 04:19:38;;;;;;;1.02;1.02;;;7.10;99.90;;;;;;4974733;28;20057;-67
2024/01/02 04:22:04;;;;;;;0.10;0.10;;;7.10;99.90;;;;;;4973448;28;20043;-67
2024/01/02 04:24:30;;;;;;;0.10;0.10;;;7.10;99.90;;;;;;4968301;28;20043;-66
2024/01/02 04:26:56;;;;;;;0.10;0.10;;;7.10;99.90;;;;;;4974215;28;20062;-67
2024/01/02 04:29:21;;;;;;;0.30;0.30;;;7.10;99.90;;;;;;4969233;28;20482;-67
2024/01/02 04:31:47;;;;;;;0.00;0.00;;;7.10;99.90;;;;;;4973807;28;20047;-67
2024/01/02 04:34:12;;;;;;;0.30;0.30;;;7.10;99.90;;;;;;4970916;28;20148;-67
2024/01/02 04:36:40;;;;;;;0.20;0.20;;;7.10;99.90;;;;;;4996104;28;20486;-67
2024/01/02 04:39:06;;;;;;;0.10;0.10;;;7.10;99.90;;;;;;4974438;28;20049;-67
2024/01/02 04:41:32;;;;;;;0.00;0.00;;;7.10;99.90;;;;;;4967657;28;20051;-67
2024/01/02 04:43:57;;;;;;;0.00;0.00;;;7.10;99.90;;;;;;4971116;28;20553;-67
2024/01/02 04:46:25;;;;;;;0.80;0.77;;;7.10;99.90;;;;;;4970485;28;20129;-67
2024/01/02 04:48:50;;;;;;;0.20;0.20;;;7.10;99.90;;;;;;4978292;28;20389;-67
2024/01/02 04:51:16;;;;;;;0.10;0.10;;;7.20;99.90;;;;;;4969897;28;20043;-66
2024/01/02 04:53:41;;;;;;;0.10;0.10;;;7.10;99.90;;;;;;4974678;28;20762;-67
2024/01/02 04:56:07;;;;;;;0.20;0.20;;;7.20;99.90;;;;;;4963964;28;20376;-67
2024/01/02 04:58:32;;;;;;;0.00;0.00;;;7.10;99.90;;;;;;4973640;28;20049;-67
2024/01/02 05:00:58;;;;;;;0.10;0.10;;;7.10;99.90;;;;;;4974216;28;20053;-67
2024/01/02 05:03:23;;;;;;;0.55;0.55;;;7.20;99.90;;;;;;4963414;28;20051;-67
2024/01/02 05:05:49;;;;;;;0.10;0.10;;;7.10;99.90;;;;;;4962571;28;20046;-67
2024/01/02 05:08:14;;;;;;;0.22;0.22;;;7.10;99.90;;;;;;4971221;28;20053;-67
2024/01/02 05:10:40;;;;;;;0.10;0.10;;;7.20;99.90;;;;;;4958625;28;20110;-67
2024/01/02 05:13:06;;;;;;;0.10;0.10;;;7.10;99.90;;;;;;4953348;28;20131;-67
2024/01/02 05:15:31;;;;;;;0.10;0.10;;;7.20;99.90;;;;;;4969347;28;20047;-67
2024/01/02 05:17:57;;;;;;;0.10;0.10;;;7.10;99.90;;;;;;4968215;28;20039;-67
2024/01/02 05:20:22;;;;;;;0.10;0.10;;;7.10;99.90;;;;;;4973457;28;20422;-67
2024/01/02 05:22:48;;;;;;;0.10;0.10;;;7.10;99.90;;;;;;4957190;28;20522;-67
2024/01/02 05:25:13;;;;;;;0.10;0.10;;;7.10;99.90;;;;;;4972639;28;20062;-67
2024/01/02 05:27:39;;;;;;;0.10;0.10;;;7.20;99.90;;;;;;4969624;28;20101;-67
2024/01/02 05:30:06;;;;;;;0.10;0.10;;;7.20;99.90;;;;;;4968089;28;20122;-67
2024/01/02 05:32:31;;;;;;;0.10;0.10;;;7.10;99.90;;;;;;4960681;28;20047;-67
2024/01/02 05:34:57;;;;;;;0.10;0.10;;;7.20;99.90;;;;;;4964708;28;20043;-67
2024/01/02 05:37:22;;;;;;;0.10;0.10;;;7.20;99.90;;;;;;4961960;28;20058;-67
2024/01/02 05:39:48;;;;;;;0.40;0.40;;;7.20;99.90;;;;;;4961943;28;20039;-67
2024/01/02 05:42:13;;;;;;;0.00;0.00;;;7.20;99.90;;;;;;4960139;28;20102;-66
2024/01/02 05:44:39;;;;;;;0.10;0.10;;;7.20;99.90;;;;;;4959898;28;20127;-66
2024/01/02 05:47:05;;;;;;;0.55;0.30;;;7.20;99.90;;;;;;4969850;28;20038;-66
2024/01/02 05:49:30;;;;;;;0.10;0.10;;;7.20;99.90;;;;;;4973655;28;20057;-67
2024/01/02 05:51:56;;;;;;;0.10;0.10;;;7.20;99.90;;;;;;4968930;28;20047;-67
2024/01/02 05:54:22;;;;;;;0.10;0.10;;;7.20;99.90;;;;;;4964588;28;20098;-67
2024/01/02 05:56:48;;;;;;;0.10;0.10;;;7.20;99.90;;;;;;4963827;28;20054;-67
2024/01/02 05:59:13;;;;;;;0.10;0.10;;;7.20;99.90;;;;;;4956322;28;20122;-67
2024/01/02 06:01:39;;;;;;;0.10;0.10;;;7.20;99.90;;;;;;4967430;28;20075;-67
2024/01/02 06:04:04;;;;;;;0.10;0.10;;;7.20;99.90;;;;;;4969974;28;20057;-67
2024/01/02 06:06:30;;;;;;;0.10;0.10;;;7.20;99.90;;;;;;4966806;28;20081;-67
2024/01/02 06:08:56;;;;;;;0.10;0.10;;;7.20;99.90;;;;;;4967865;28;20049;-66
2024/01/02 06:11:21;;;;;;;0.08;0.08;;;7.30;99.90;;;;;;4964174;28;20045;-67
2024/01/02 06:13:47;;;;;;;0.10;0.10;;;7.30;99.90;;;;;;4964702;28;20054;-67
2024/01/02 06:16:12;;;;;;;0.10;0.10;;;7.20;99.90;;;;;;4964443;28;20046;-66
2024/01/02 06:18:38;;;;;;;0.32;0.32;;;7.30;99.90;;;;;;4967023;28;20043;-67
2024/01/02 06:21:04;;;;;;;0.10;0.10;;;7.30;99.90;;;;;;4955221;28;20483;-66
2024/01/02 06:23:34;;;;;;;0.20;0.20;;;7.30;99.90;;;;;;4963359;28;20046;-67
2024/01/02 06:26:00;;;;;;;0.05;0.05;;;7.30;99.90;;;;;;4964931;28;20043;-66
2024/01/02 06:28:26;;;;;;;0.10;0.10;;;7.30;99.90;;;;;;4975597;28;20090;-67
2024/01/02 06:30:51;;;;;;;0.08;0.08;;;7.30;99.90;;;;;;4965808;28;20559;-66
2024/01/02 06:33:17;;;;;;;0.00;0.00;;;7.30;99.90;;;;;;4956862;28;20043;-66
2024/01/02 06:35:43;;;;;;;0.10;0.10;;;7.30;99.90;;;;;;4965157;28;20049;-67
2024/01/02 06:38:11;;;;;;;0.10;0.10;;;7.40;99.90;;;;;;4981627;28;20493;-67
2024/01/02 06:40:37;;;;;;;0.10;0.10;;;7.30;99.90;;;;;;4962585;28;20067;-66
2024/01/02 06:43:03;;;;;;;0.28;0.28;;;7.40;99.90;;;;;;4962310;28;20105;-66
2024/01/02 06:45:29;;;;;;;0.10;0.10;;;7.40;99.90;;;;;;4967520;28;20578;-67
2024/01/02 06:47:55;;;;;;;0.10;0.10;;;7.40;99.90;;;;;;4969452;28;20043;-67
2024/01/02 06:50:21;;;;;;;0.25;0.25;;;7.40;99.90;;;;;;4976013;28;20085;-66
2024/01/02 06:52:47;;;;;;;0.10;0.10;;;7.40;99.90;;;;;;4967105;28;20088;-67
2024/01/02 06:55:12;;;;;;;0.10;0.10;;;7.40;99.90;;;;;;4966954;28;23054;-67
2024/01/02 06:57:39;;;;;;;0.10;0.10;;;7.40;99.90;;;;;;4971810;28;20078;-67
2024/01/02 07:00:05;;;;;;;0.03;0.03;;;7.50;99.90;;;;;;4965994;28;20125;-67
2024/01/02 07:02:32;;;;;;;0.10;0.10;;;7.50;99.90;;;;;;4960277;28;20034;-67
2024/01/02 07:04:58;;;;;;;0.10;0.10;;;7.60;99.90;;;;;;4969578;28;20043;-66
2024/01/02 07:07:24;;;;;;;0.10;0.10;;;7.60;99.90;;;;;;4960314;28;20533;-66
2024/01/02 07:09:50;;;;;;;0.10;0.10;;;7.60;99.90;;;;;;4961369;28;20047;-67
2024/01/02 07:12:15;;;;;;;0.10;0.10;;;7.70;99.90;;;;;;4957738;28;20073;-66
2024/01/02 07:14:41;;;;;;;0.10;0.10;;;7.70;99.90;;;;;;4965825;28;20057;-66
2024/01/02 07:17:07;;;;;;;0.10;0.10;;;7.80;99.90;;;;;;4959149;28;20039;-67
2024/01/02 07:19:33;;;;;;;0.10;0.10;;;7.90;99.90;;;;;;4958000;28;20126;-67
2024/01/02 07:21:58;;;;;;;0.10;0.10;;;8.00;99.90;;;;;;4969774;28;20078;-66
2024/01/02 07:24:24;;;;;;;0.00;0.00;;;8.10;99.90;;;;;;4958627;28;20089;-66
2024/01/02 07:26:50;;;;;;;0.00;0.00;;;8.10;99.90;;;;;;4960412;28;20047;-66
2024/01/02 07:29:15;;;;;;;0.10;0.10;;;8.20;99.90;;;;;;4964952;28;20043;-66
2024/01/02 07:31:41;;;;;;;0.52;0.52;;;8.30;99.90;;;;;;4962935;28;20129;-67
2024/01/02 07:34:07;;;;;;;0.10;0.10;;;8.50;99.90;;;;;;4964466;28;20061;-67
2024/01/02 07:36:32;;;;;;;0.40;0.40;;;8.50;99.90;;;;;;4957639;28;20057;-67
2024/01/02 07:38:58;;;;;;;0.47;0.47;;;8.70;99.90;;;;;;4969152;28;20046;-67
2024/01/02 07:41:23;;;;;;;0.10;0.10;;;8.70;99.90;;;;;;4963343;28;20077;-67
2024/01/02 07:43:49;;;;;;;0.45;0.45;;;8.70;99.90;;;;;;4965980;28;20725;-67
2024/01/02 07:46:16;;;;;;;0.10;0.10;;;8.80;99.90;;;;;;4968678;28;20101;-67
2024/01/02 07:48:41;;;;;;;1.60;1.50;;;8.80;99.90;;;;;;4964356;28;20062;-66
2024/01/02 07:51:07;;;;;;;0.22;0.22;;;8.90;99.90;;;;;;4963537;28;20043;-67
2024/01/02 07:53:33;;;;;;;15.32;5.05;;;9.10;99.90;;;;;;4971455;28;20498;-67
2024/01/02 07:56:01;;;;;;;0.10;0.10;;;9.10;99.90;;;;;;4969425;28;20043;-67
2024/01/02 07:58:27;;;;;;;0.00;0.00;;;9.20;99.90;;;;;;4961689;28;20058;-67
2024/01/02 08:00:52;;;;;;;0.25;0.25;;;9.30;99.90;;;;;;4976866;28;20042;-67
2024/01/02 08:03:18;;;;;;;5.22;1.98;;;9.40;99.90;;;;;;4964238;28;20051;-67
2024/01/02 08:05:43;;;;;;;0.10;0.10;;;9.40;99.90;;;;;;4963161;28;20137;-67
2024/01/02 08:08:09;;;;;;;0.75;0.75;;;9.40;99.90;;;;;;4957271;28;20050;-67
2024/01/02 08:10:34;;;;;;;0.00;0.00;;;9.40;99.90;;;;;;4961203;28;20383;-66
2024/01/02 08:13:00;;;;;;;0.85;0.85;;;9.40;99.90;;;;;;4959379;28;20047;-67
2024/01/02 08:15:26;;;;;;;0.10;0.10;;;9.40;99.90;;;;;;4960508;28;20041;-67
2024/01/02 08:17:51;;;;;;;0.00;0.00;;;9.40;99.90;;;;;;4956474;28;20125;-66
2024/01/02 08:20:17;;;;;;;0.10;0.10;;;9.40;99.90;;;;;;4971817;28;20038;-67
2024/01/02 08:22:43;;;;;;;0.10;0.10;;;9.50;99.90;;;;;;4955992;28;20055;-67
2024/01/02 08:25:09;;;;;;;0.20;0.20;;;9.50;99.90;;;;;;4959179;28;20047;-67
2024/01/02 08:27:35;;;;;;;0.20;0.20;;;9.60;99.90;;;;;;4951618;28;20129;-67
2024/01/02 08:30:01;;;;;;;0.20;0.20;;;9.60;99.90;;;;;;4967138;28;20055;-67
2024/01/02 08:32:28;;;;;;;0.00;0.00;;;9.60;99.90;;;;;;4959113;28;20039;-67
2024/01/02 08:34:54;;;;;;;0.20;0.20;;;9.60;99.90;;;;;;4963877;28;20114;-67
2024/01/02 08:37:19;;;;;;;0.10;0.10;;;9.70;99.90;;;;;;4967628;28;20585;-67
2024/01/02 08:39:45;;;;;;;0.10;0.10;;;9.70;99.90;;;;;;4968445;28;20040;-67
2024/01/02 08:42:11;;;;;;;0.10;0.10;;;9.70;99.90;;;;;;4961095;28;20057;-67
2024/01/02 08:44:36;;;;;;;0.10;0.10;;;9.70;99.90;;;;;;4961962;28;20106;-66
2024/01/02 08:47:02;;;;;;;2.85;0.75;;;9.70;99.90;;;;;;4974751;28;20038;-66
2024/01/02 08:49:27;;;;;;;0.30;0.30;;;9.70;99.90;;;;;;4968072;28;20152;-66
2024/01/02 08:51:53;;;;;;;1.35;1.25;;;9.80;99.90;;;;;;4972480;28;20450;-66
2024/01/02 08:54:18;;;;;;;0.10;0.10;;;9.80;99.90;;;;;;4970179;28;20101;-66
2024/01/02 08:56:44;;;;;;;0.10;0.10;;;9.80;99.90;;;;;;4965506;28;20052;-66
2024/01/02 08:59:10;;;;;;;0.10;0.10;;;9.80;99.90;;;;;;4963789;28;20054;-67
2024/01/02 09:01:35;;;;;;;0.70;0.70;;;9.90;99.90;;;;;;4958962;28;20050;-67
2024/01/02 09:04:01;;;;;;;0.55;0.55;;;9.90;99.90;;;;;;4963279;28;20127;-67
2024/01/02 09:06:27;;;;;;;0.35;0.32;;;9.90;99.90;;;;;;4962119;28;20089;-67
2024/01/02 09:08:57;;;;;;;0.17;0.17;;;10.00;99.90;;;;;;4958034;28;20054;-67
2024/01/02 09:11:24;;;;;;;0.00;0.00;;;10.00;99.90;;;;;;4966219;28;20066;-67
2024/01/02 09:13:50;;;;;;;4.05;1.08;;;9.90;99.90;;;;;;4976155;28;20061;-67
2024/01/02 09:16:15;;;;;;;0.77;0.47;;;9.90;99.90;;;;;;4963884;28;20475;-67
2024/01/02 09:18:41;;;;;;;0.10;0.10;;;10.00;99.90;;;;;;4968376;28;20066;-67
2024/01/02 09:21:07;;;;;;;0.10;0.10;;;10.00;99.90;;;;;;4968604;28;20046;-67
2024/01/02 09:23:34;;;;;;;0.10;0.10;;;10.00;99.90;;;;;;4970752;28;20047;-67
2024/01/02 09:26:01;;;;;;;1.00;1.00;;;10.00;99.90;;;;;;4969015;28;20043;-66
2024/01/02 09:28:29;;;;;;;0.10;0.10;;;10.00;99.90;;;;;;4965675;28;20035;-67
2024/01/02 09:30:55;;;;;;;0.10;0.10;;;10.10;99.90;;;;;;4972429;28;20125;-67
2024/01/02 09:33:21;;;;;;;0.10;0.10;;;10.10;99.90;;;;;;4971757;28;20474;-67
2024/01/02 09:35:46;;;;;;;0.15;0.15;;;10.10;99.90;;;;;;4956675;28;20038;-67
2024/01/02 09:38:12;;;;;;;0.10;0.10;;;10.00;99.90;;;;;;4966590;28;20050;-67
2024/01/02 09:41:16;;;;;;;0.00;0.00;;;10.10;99.90;;;;;;4965831;28;20470;-67
2024/01/02 09:43:50;;;;;;;0.13;0.13;;;10.10;99.90;;;;;;4966702;28;20417;-67
2024/01/02 09:46:15;;;;;;;0.00;0.00;;;10.10;99.90;;;;;;4981211;28;20051;-67
2024/01/02 09:49:03;;;;;;;0.00;0.00;;;10.10;99.90;;;;;;4968233;28;20502;-67
2024/01/02 09:51:44;;;;;;;0.40;0.40;;;10.20;99.90;;;;;;4975575;28;20074;-67
2024/01/02 09:54:33;;;;;;;0.40;0.40;;;10.20;99.90;;;;;;4962486;28;20042;-67
2024/01/02 09:57:10;;;;;;;0.05;0.05;;;10.20;99.90;;;;;;4940926;28;20185;-67
2024/01/02 09:59:50;;;;;;;0.10;0.10;;;10.20;99.90;;;;;;4959885;28;20491;-67
2024/01/02 10:02:54;;;;;;;0.75;0.75;;;10.30;99.90;;;;;;4964753;28;20043;-67
2024/01/02 10:05:31;;;;;;;0.20;0.20;;;10.30;99.90;;;;;;4966876;28;20063;-67
2024/01/02 10:08:03;;;;;;;0.10;0.10;;;10.30;99.90;;;;;;4964166;28;20617;-67
2024/01/02 10:10:36;;;;;;;5.47;1.85;;;10.30;99.90;;;;;;4964055;28;20050;-67
2024/01/02 10:13:21;;;;;;;27.92;2.90;;;10.30;99.90;;;;;;4957913;28;20498;-67
2024/01/02 10:16:21;;;;;;;0.10;0.10;;;10.40;99.90;;;;;;4960005;28;20054;-67
2024/01/02 10:19:09;;;;;;;0.20;0.20;;;10.40;99.90;;;;;;4965073;28;20051;-66
2024/01/02 10:22:08;;;;;;;2.30;0.82;;;10.40;99.90;;;;;;4959532;28;20534;-67
2024/01/02 10:24:56;;;;;;;0.20;0.20;;;10.40;99.90;;;;;;4958683;28;20129;-67
2024/01/02 10:27:35;;;;;;;0.93;0.93;;;10.50;99.90;;;;;;4970051;28;20741;-67
2024/01/02 10:30:08;;;;;;;0.28;0.28;;;10.50;99.90;;;;;;4969264;28;20061;-67
2024/01/02 10:33:28;;;;;;;0.10;0.10;;;10.50;99.90;;;;;;4963244;28;20062;-68
2024/01/02 10:36:00;;;;;;;0.20;0.20;;;10.60;99.90;;;;;;4887572;29;20048;-67
2024/01/02 10:38:54;;;;;;;0.22;0.22;;;10.60;99.90;;;;;;4950641;28;20676;-67
2024/01/02 10:41:26;;;;;;;1.05;1.05;;;10.60;99.90;;;;;;4958687;28;20055;-67
2024/01/02 10:44:18;;;;;;;2.25;2.05;;;10.60;99.90;;;;;;4965460;28;20426;-67
2024/01/02 10:46:59;;;;;;;0.57;0.57;;;10.60;99.90;;;;;;4956338;28;20139;-67
2024/01/02 10:49:38;;;;;;;0.10;0.10;;;10.70;99.90;;;;;;4954404;28;20097;-67
2024/01/02 10:52:24;;;;;;;0.15;0.15;;;10.70;99.90;;;;;;4969439;28;22167;-67
2024/01/02 10:55:22;;;;;;;3.15;2.30;;;10.70;99.90;;;;;;4974059;28;20491;-67
2024/01/02 10:58:19;;;;;;;2.22;2.05;;;10.70;99.90;;;;;;4969490;28;20050;-67
2024/01/02 11:01:17;;;;;;;0.10;0.10;;;10.70;99.90;;;;;;4972467;28;20057;-67
2024/01/02 11:03:52;;;;;;;0.10;0.10;;;10.70;99.90;;;;;;4953730;28;20051;-67
2024/01/02 11:06:47;;;;;;;0.45;0.45;;;10.70;99.90;;;;;;4961712;28;20419;-67
2024/01/02 11:09:26;;;;;;;0.32;0.32;;;10.60;99.90;;;;;;4945695;28;20062;-67
2024/01/02 11:11:54;;;;;;;0.00;0.00;;;10.60;99.90;;;;;;4963555;28;20055;-67
2024/01/02 11:14:24;;;;;;;0.60;0.60;;;10.60;99.90;;;;;;4959772;28;20039;-67
2024/01/02 11:16:52;;;;;;;0.10;0.10;;;10.60;99.90;;;;;;4957823;28;20057;-67
2024/01/02 11:19:27;;;;;;;1.42;1.33;;;10.60;99.90;;;;;;4963509;28;20089;-67
2024/01/02 11:22:06;;;;;;;0.10;0.10;;;10.60;99.90;;;;;;4954985;28;20075;-67
2024/01/02 11:24:35;;;;;;;4.22;2.25;;;10.60;99.90;;;;;;4963304;28;20042;-67
2024/01/02 11:27:03;;;;;;;0.10;0.10;;;10.60;99.90;;;;;;4962503;28;20047;-67
2024/01/02 11:29:35;;;;;;;0.63;0.63;;;10.60;99.90;;;;;;4970477;28;20077;-67
2024/01/02 11:32:08;;;;;;;0.00;0.00;;;10.60;99.90;;;;;;4968750;28;20133;-67
2024/01/02 11:35:05;;;;;;;0.10;0.10;;;10.60;99.90;;;;;;4961240;28;20058;-66
2024/01/02 11:37:30;;;;;;;0.00;0.00;;;10.50;99.90;;;;;;4969878;28;20078;-67
2024/01/02 11:40:06;;;;;;;0.10;0.10;;;10.60;99.90;;;;;;4964899;28;20077;-66
2024/01/02 11:42:55;;;;;;;0.38;0.38;;;10.50;99.90;;;;;;4966858;28;20040;-66
2024/01/02 11:45:22;;;;;;;3.92;1.83;;;10.50;99.90;;;;;;4966404;28;20061;-66
2024/01/02 11:48:06;;;;;;;0.43;0.43;;;10.60;99.90;;;;;;4954768;28;20047;-66
2024/01/02 11:50:48;;;;;;;0.10;0.10;;;10.60;99.90;;;;;;4961645;28;20185;-65
2024/01/02 11:53:29;;;;;;;0.10;0.10;;;10.60;99.90;;;;;;4959800;28;20130;-65
2024/01/02 11:56:03;;;;;;;2.75;1.90;;;10.50;99.90;;;;;;4975414;28;20062;-65
2024/01/02 11:58:45;;;;;;;0.10;0.10;;;10.60;99.90;;;;;;4965753;28;20062;-65
2024/01/02 12:01:43;;;;;;;0.10;0.10;;;10.50;99.90;;;;;;4955855;28;20812;-66
2024/01/02 12:04:51;;;;;;;1.65;0.90;;;10.50;99.90;;;;;;4959281;28;20402;-66
2024/01/02 12:07:26;;;;;;;1.65;1.55;;;10.50;99.90;;;;;;4964664;28;20110;-65
2024/01/02 12:09:52;;;;;;;1.55;0.80;;;10.50;99.90;;;;;;4966394;28;20093;-66
2024/01/02 12:12:35;;;;;;;0.10;0.10;;;10.40;99.90;;;;;;4957995;28;20043;-65
2024/01/02 12:15:16;;;;;;;0.32;0.32;;;10.40;99.90;;;;;;4968415;28;20100;-65
2024/01/02 12:18:03;;;;;;;0.10;0.10;;;10.40;99.90;;;;;;4964674;28;20043;-65
2024/01/02 12:20:43;;;;;;;0.32;0.32;;;10.50;99.90;;;;;;4952889;28;20078;-65
2024/01/02 12:23:09;;;;;;;0.22;0.22;;;10.40;99.90;;;;;;4955351;28;20118;-65
2024/01/02 12:25:34;;;;;;;0.25;0.25;;;10.50;99.90;;;;;;4966974;28;20455;-66
2024/01/02 12:28:02;;;;;;;0.20;0.20;;;10.50;99.90;;;;;;4963943;28;20042;-65
2024/01/02 12:30:50;;;;;;;2.25;2.05;;;10.50;99.90;;;;;;4972085;28;20097;-65
2024/01/02 12:33:33;;;;;;;0.10;0.10;;;10.50;99.90;;;;;;4980431;28;20046;-66
2024/01/02 12:36:17;;;;;;;0.50;0.50;;;10.50;99.90;;;;;;4962731;28;20920;-66
2024/01/02 12:39:00;;;;;;;0.63;0.63;;;10.50;99.90;;;;;;4963950;28;20317;-66
2024/01/02 12:41:28;;;;;;;0.43;0.43;;;10.50;99.90;;;;;;4962284;28;20418;-66
2024/01/02 12:43:59;;;;;;;1.08;1.08;;;10.40;99.90;;;;;;4968377;28;20054;-66
2024/01/02 12:46:31;;;;;;;0.80;0.68;;;10.40;99.90;;;;;;4961024;28;20409;-66
2024/01/02 12:49:09;;;;;;;0.00;0.00;;;10.50;99.90;;;;;;4961271;28;20047;-66
2024/01/02 12:51:37;;;;;;;2.03;1.35;;;10.40;99.90;;;;;;4955978;28;20049;-66
2024/01/02 12:54:04;;;;;;;1.25;0.80;;;10.40;99.90;;;;;;4964728;28;20386;-66
2024/01/02 12:56:33;;;;;;;0.57;0.57;;;10.40;99.90;;;;;;4963012;28;20134;-66
2024/01/02 12:59:06;;;;;;;0.10;0.10;;;10.40;99.90;;;;;;4966848;28;20467;-66
2024/01/02 13:01:32;;;;;;;0.13;0.13;;;10.40;99.90;;;;;;4958351;28;20503;-66
2024/01/02 13:03:58;;;;;;;0.00;0.00;;;10.40;99.90;;;;;;4958224;28;20047;-66